Time;durP1;ratioP1;P1;durP2;ratioP2;P2;SDS_P1;SDS_P2;PMS_P1;PMS_P2;Temp;Humidity;BMP_temperature;BMP_pressure;BME280_temperature;BME280_humidity;BME280_pressure;Samples;Min_cycle;Max_cycle;Signal;HPM_P1;HPM_P2
2023/10/29 00:01:05;;;;;;;19.23;10.40;;;;;;;;;;5048910;28;20090;-37
2023/10/29 00:03:30;;;;;;;18.33;9.67;;;;;;;;;;5055933;28;20020;-39
2023/10/29 00:05:55;;;;;;;20.95;10.10;;;;;;;;;;5055257;28;20287;-39
2023/10/29 00:08:21;;;;;;;17.23;8.32;;;;;;;;;;5058401;28;20113;-38
2023/10/29 00:10:46;;;;;;;20.00;10.23;;;;;;;;;;5058944;28;20028;-39
2023/10/29 00:13:11;;;;;;;17.30;8.52;;;;;;;;;;5058975;28;20016;-39
2023/10/29 00:15:37;;;;;;;17.83;8.52;;;;;;;;;;5057102;28;20116;-39
2023/10/29 00:18:05;;;;;;;24.83;10.75;;;;;;;;;;5047416;28;20036;-40
2023/10/29 00:20:30;;;;;;;25.80;10.73;;;;;;;;;;5058032;28;20159;-39
2023/10/29 00:22:55;;;;;;;20.60;9.17;;;;;;;;;;5057458;28;20116;-38
2023/10/29 00:25:21;;;;;;;21.38;10.35;;;;;;;;;;5057853;28;20270;-38
2023/10/29 00:27:46;;;;;;;27.90;10.93;;;;;;;;;;5050295;28;20093;-37
2023/10/29 00:30:11;;;;;;;17.77;9.13;;;;;;;;;;5055894;28;20286;-38
2023/10/29 00:32:36;;;;;;;19.08;9.40;;;;;;;;;;5042292;28;20285;-40
2023/10/29 00:35:02;;;;;;;18.13;9.23;;;;;;;;;;5058248;28;20056;-38
2023/10/29 00:37:27;;;;;;;19.93;8.87;;;;;;;;;;5052340;28;20705;-38
2023/10/29 00:39:53;;;;;;;18.87;8.87;;;;;;;;;;5058805;28;20278;-38
2023/10/29 00:42:19;;;;;;;22.48;10.45;;;;;;;;;;5056346;28;21242;-41
2023/10/29 00:44:44;;;;;;;18.48;9.00;;;;;;;;;;5055119;28;20029;-38
2023/10/29 00:47:10;;;;;;;24.55;10.52;;;;;;;;;;5058887;28;20033;-40
2023/10/29 00:49:35;;;;;;;21.83;9.38;;;;;;;;;;5061926;28;21041;-37
2023/10/29 00:52:00;;;;;;;20.60;10.63;;;;;;;;;;5052795;28;20153;-40
2023/10/29 00:54:26;;;;;;;19.33;9.63;;;;;;;;;;5058137;28;20052;-39
2023/10/29 00:56:53;;;;;;;24.52;9.25;;;;;;;;;;5057894;28;20032;-38
2023/10/29 00:59:18;;;;;;;21.08;9.30;;;;;;;;;;5056142;28;20028;-38
2023/10/29 01:01:44;;;;;;;26.70;9.43;;;;;;;;;;5051008;28;20099;-40
2023/10/29 01:04:09;;;;;;;21.53;10.57;;;;;;;;;;5054284;28;20043;-39
2023/10/29 01:06:39;;;;;;;25.52;10.38;;;;;;;;;;5056982;28;20275;-38
2023/10/29 01:09:06;;;;;;;21.92;10.00;;;;;;;;;;5053606;28;20495;-39
2023/10/29 01:11:32;;;;;;;21.60;9.70;;;;;;;;;;5059232;28;20027;-38
2023/10/29 01:13:57;;;;;;;19.00;9.05;;;;;;;;;;5052568;28;20145;-37
2023/10/29 01:16:22;;;;;;;21.30;9.83;;;;;;;;;;5057749;28;20813;-40
2023/10/29 01:18:48;;;;;;;21.77;10.13;;;;;;;;;;5062472;28;20270;-38
2023/10/29 01:21:13;;;;;;;18.43;9.73;;;;;;;;;;5061697;28;20328;-40
2023/10/29 01:23:39;;;;;;;21.63;10.18;;;;;;;;;;5061077;28;20765;-38
2023/10/29 01:26:04;;;;;;;18.40;9.10;;;;;;;;;;5063192;28;20061;-38
2023/10/29 01:28:29;;;;;;;19.52;9.35;;;;;;;;;;5054084;28;20024;-39
2023/10/29 01:30:55;;;;;;;18.67;9.60;;;;;;;;;;5053039;28;20028;-39
2023/10/29 01:33:20;;;;;;;21.15;9.10;;;;;;;;;;5059629;28;20349;-38
2023/10/29 01:35:45;;;;;;;21.17;9.05;;;;;;;;;;5058481;28;20095;-39
2023/10/29 01:38:11;;;;;;;19.15;8.82;;;;;;;;;;5058047;28;20097;-38
2023/10/29 01:40:36;;;;;;;18.73;8.88;;;;;;;;;;5058989;28;20483;-38
2023/10/29 01:43:02;;;;;;;19.03;8.67;;;;;;;;;;5062129;28;20067;-38
2023/10/29 01:45:27;;;;;;;13.88;5.90;;;;;;;;;;5054028;28;20297;-38
2023/10/29 01:47:52;;;;;;;17.70;8.43;;;;;;;;;;5050531;28;20027;-37
2023/10/29 01:50:17;;;;;;;17.80;9.53;;;;;;;;;;5057086;28;20279;-37
2023/10/29 01:52:43;;;;;;;16.10;9.32;;;;;;;;;;5059951;28;20274;-38
2023/10/29 01:55:08;;;;;;;16.40;9.43;;;;;;;;;;5059358;28;20506;-39
2023/10/29 01:57:34;;;;;;;17.40;8.10;;;;;;;;;;5052711;28;20109;-38
2023/10/29 01:59:59;;;;;;;18.90;8.77;;;;;;;;;;5054765;28;20055;-38
2023/10/29 02:02:25;;;;;;;21.30;8.47;;;;;;;;;;5058307;28;20996;-40
2023/10/29 02:04:50;;;;;;;14.97;7.67;;;;;;;;;;5052895;28;20291;-37
2023/10/29 02:07:15;;;;;;;15.47;7.33;;;;;;;;;;5055068;28;20362;-41
2023/10/29 02:09:41;;;;;;;13.83;7.37;;;;;;;;;;5059119;28;20279;-39
2023/10/29 02:12:06;;;;;;;16.92;7.35;;;;;;;;;;5061412;28;20301;-38
2023/10/29 02:14:32;;;;;;;15.65;7.72;;;;;;;;;;5062557;28;20415;-38
2023/10/29 02:16:57;;;;;;;16.73;7.70;;;;;;;;;;5061116;28;20074;-38
2023/10/29 02:19:23;;;;;;;12.43;7.20;;;;;;;;;;5060325;28;20023;-39
2023/10/29 02:21:48;;;;;;;13.80;6.53;;;;;;;;;;5056268;28;20027;-39
2023/10/29 02:24:13;;;;;;;15.20;7.78;;;;;;;;;;5059613;28;20036;-38
2023/10/29 02:26:38;;;;;;;10.97;6.57;;;;;;;;;;5062640;28;20474;-40
2023/10/29 02:29:04;;;;;;;13.40;4.90;;;;;;;;;;5059874;28;20380;-39
2023/10/29 02:31:29;;;;;;;12.75;6.63;;;;;;;;;;5059746;28;20664;-41
2023/10/29 02:33:54;;;;;;;15.20;7.43;;;;;;;;;;5059680;28;20036;-39
2023/10/29 02:36:19;;;;;;;13.50;7.20;;;;;;;;;;5061498;28;20031;-40
2023/10/29 02:38:45;;;;;;;15.00;7.07;;;;;;;;;;5063776;28;20526;-38
2023/10/29 02:41:10;;;;;;;13.23;6.80;;;;;;;;;;5053821;28;20386;-37
2023/10/29 02:43:39;;;;;;;11.15;6.88;;;;;;;;;;5057233;28;20029;-39
2023/10/29 02:46:04;;;;;;;14.27;7.25;;;;;;;;;;5062483;28;20074;-38
2023/10/29 02:48:29;;;;;;;10.87;6.90;;;;;;;;;;5065259;28;20020;-38
2023/10/29 02:50:54;;;;;;;13.52;6.82;;;;;;;;;;5067820;28;20316;-41
2023/10/29 02:53:20;;;;;;;13.53;6.60;;;;;;;;;;5062161;28;20056;-38
2023/10/29 02:55:46;;;;;;;13.52;6.57;;;;;;;;;;5064106;28;20344;-38
2023/10/29 02:58:12;;;;;;;9.85;5.63;;;;;;;;;;5059014;28;20023;-37
2023/10/29 03:00:37;;;;;;;11.13;5.65;;;;;;;;;;5056893;28;20021;-38
2023/10/29 03:03:03;;;;;;;13.02;5.97;;;;;;;;;;5054307;28;20026;-39
2023/10/29 03:05:29;;;;;;;11.02;5.65;;;;;;;;;;5062746;28;20033;-38
2023/10/29 03:07:54;;;;;;;11.02;5.45;;;;;;;;;;5062378;28;20028;-40
2023/10/29 03:10:19;;;;;;;11.80;5.47;;;;;;;;;;5060047;28;20401;-38
2023/10/29 03:12:45;;;;;;;8.83;4.00;;;;;;;;;;5059447;28;20078;-37
2023/10/29 03:15:10;;;;;;;8.63;6.03;;;;;;;;;;5061768;28;20691;-39
2023/10/29 03:17:35;;;;;;;9.70;5.07;;;;;;;;;;5059264;28;20286;-38
2023/10/29 03:20:00;;;;;;;12.93;5.27;;;;;;;;;;5057499;28;20334;-38
2023/10/29 03:22:26;;;;;;;16.10;5.68;;;;;;;;;;5062028;28;20837;-39
2023/10/29 03:24:51;;;;;;;7.40;5.03;;;;;;;;;;5061433;28;20036;-38
2023/10/29 03:27:16;;;;;;;8.75;4.32;;;;;;;;;;5064467;28;20079;-38
2023/10/29 03:29:42;;;;;;;10.33;4.70;;;;;;;;;;5061863;28;20032;-38
2023/10/29 03:32:07;;;;;;;8.45;4.88;;;;;;;;;;5062816;28;20278;-37
2023/10/29 03:34:32;;;;;;;10.63;4.90;;;;;;;;;;5059319;28;20036;-38
2023/10/29 03:36:57;;;;;;;6.88;3.97;;;;;;;;;;5064924;28;20291;-38
2023/10/29 03:39:23;;;;;;;10.27;4.53;;;;;;;;;;5056473;28;20062;-38
2023/10/29 03:41:48;;;;;;;11.95;4.00;;;;;;;;;;5066204;28;20020;-38
2023/10/29 03:44:13;;;;;;;8.53;3.60;;;;;;;;;;5065159;28;20398;-41
2023/10/29 03:46:39;;;;;;;6.47;3.63;;;;;;;;;;5059250;28;20286;-40
2023/10/29 03:49:04;;;;;;;9.48;4.00;;;;;;;;;;5060904;28;20028;-38
2023/10/29 03:51:30;;;;;;;7.77;3.47;;;;;;;;;;5066032;28;20471;-38
2023/10/29 03:53:55;;;;;;;6.05;3.20;;;;;;;;;;5062116;28;20291;-38
2023/10/29 03:56:20;;;;;;;9.23;2.97;;;;;;;;;;5054769;28;20394;-39
2023/10/29 03:58:46;;;;;;;7.68;3.45;;;;;;;;;;5055828;28;20025;-39
2023/10/29 04:01:14;;;;;;;10.15;3.70;;;;;;;;;;5060695;28;20070;-37
2023/10/29 04:03:40;;;;;;;8.25;3.28;;;;;;;;;;5066549;28;20025;-40
2023/10/29 04:06:09;;;;;;;12.20;4.13;;;;;;;;;;5063859;28;20021;-38
2023/10/29 04:08:35;;;;;;;9.95;3.47;;;;;;;;;;5062274;28;20026;-39
2023/10/29 04:11:00;;;;;;;7.60;3.63;;;;;;;;;;5067943;28;20028;-40
2023/10/29 04:13:26;;;;;;;9.02;3.00;;;;;;;;;;5068767;28;20050;-38
2023/10/29 04:15:51;;;;;;;7.45;3.20;;;;;;;;;;5057895;28;20020;-39
2023/10/29 04:18:16;;;;;;;9.38;3.92;;;;;;;;;;5064157;28;20074;-39
2023/10/29 04:20:42;;;;;;;7.53;3.50;;;;;;;;;;5058907;28;20066;-40
2023/10/29 04:23:07;;;;;;;11.55;4.38;;;;;;;;;;5065217;28;20048;-39
2023/10/29 04:25:33;;;;;;;12.10;4.23;;;;;;;;;;5065780;28;20093;-39
2023/10/29 04:27:58;;;;;;;9.48;3.88;;;;;;;;;;5050411;28;20306;-38
2023/10/29 04:30:23;;;;;;;8.57;3.90;;;;;;;;;;5067771;28;20044;-38
2023/10/29 04:32:49;;;;;;;8.93;5.18;;;;;;;;;;5065941;28;20278;-39
2023/10/29 04:35:14;;;;;;;7.33;4.30;;;;;;;;;;5064137;28;20039;-38
2023/10/29 04:37:39;;;;;;;8.07;4.27;;;;;;;;;;5057968;28;20301;-38
2023/10/29 04:40:05;;;;;;;6.27;3.47;;;;;;;;;;5062613;28;20271;-38
2023/10/29 04:42:30;;;;;;;6.53;3.13;;;;;;;;;;5060628;28;20789;-41
2023/10/29 04:44:55;;;;;;;5.57;3.10;;;;;;;;;;5055471;28;21130;-42
2023/10/29 04:47:20;;;;;;;6.90;3.17;;;;;;;;;;5056654;28;20386;-41
2023/10/29 04:49:46;;;;;;;4.70;3.07;;;;;;;;;;5060184;28;20582;-38
2023/10/29 04:52:11;;;;;;;7.50;3.30;;;;;;;;;;5060470;28;20362;-38
2023/10/29 04:54:36;;;;;;;5.45;2.72;;;;;;;;;;5064757;28;20287;-38
2023/10/29 04:57:02;;;;;;;8.83;3.30;;;;;;;;;;5061034;28;20056;-41
2023/10/29 04:59:27;;;;;;;4.88;2.25;;;;;;;;;;5063627;28;20275;-38
2023/10/29 05:01:53;;;;;;;7.43;2.80;;;;;;;;;;5066233;28;20093;-37
2023/10/29 05:04:18;;;;;;;6.23;2.10;;;;;;;;;;5060508;28;20124;-40
2023/10/29 05:06:43;;;;;;;9.20;3.07;;;;;;;;;;5059949;28;20259;-39
2023/10/29 05:09:09;;;;;;;4.27;2.73;;;;;;;;;;5062142;28;20286;-38
2023/10/29 05:11:35;;;;;;;11.07;2.88;;;;;;;;;;5059699;28;20290;-40
2023/10/29 05:14:00;;;;;;;9.38;2.72;;;;;;;;;;5062735;28;20130;-39
2023/10/29 05:16:26;;;;;;;5.13;3.10;;;;;;;;;;5061038;28;20024;-38
2023/10/29 05:18:51;;;;;;;4.85;2.72;;;;;;;;;;5065182;28;20267;-39
2023/10/29 05:21:16;;;;;;;7.03;4.13;;;;;;;;;;5061981;28;20591;-38
2023/10/29 05:23:42;;;;;;;8.43;5.07;;;;;;;;;;5063166;28;20282;-38
2023/10/29 05:26:07;;;;;;;7.67;4.10;;;;;;;;;;5055835;28;20024;-41
2023/10/29 05:28:32;;;;;;;8.10;2.63;;;;;;;;;;5062701;28;20353;-38
2023/10/29 05:30:57;;;;;;;3.70;2.03;;;;;;;;;;5058485;28;20379;-39
2023/10/29 05:33:23;;;;;;;5.03;2.43;;;;;;;;;;5064131;28;20263;-39
2023/10/29 05:35:48;;;;;;;5.00;1.90;;;;;;;;;;5052482;28;20657;-39
2023/10/29 05:38:13;;;;;;;7.05;2.38;;;;;;;;;;5064049;28;20274;-38
2023/10/29 05:40:38;;;;;;;6.77;2.97;;;;;;;;;;5056390;28;20480;-38
2023/10/29 05:43:04;;;;;;;5.60;1.83;;;;;;;;;;5063636;28;20263;-39
2023/10/29 05:45:30;;;;;;;8.40;2.53;;;;;;;;;;5064172;28;20024;-39
2023/10/29 05:47:56;;;;;;;3.90;2.20;;;;;;;;;;5064624;28;20032;-38
2023/10/29 05:50:22;;;;;;;5.38;2.42;;;;;;;;;;5061475;28;20275;-39
2023/10/29 05:52:48;;;;;;;7.13;2.80;;;;;;;;;;5065339;28;20062;-38
2023/10/29 05:55:13;;;;;;;12.00;4.57;;;;;;;;;;5062773;28;20114;-38
2023/10/29 05:57:39;;;;;;;7.50;3.73;;;;;;;;;;5060958;28;20483;-40
2023/10/29 06:00:04;;;;;;;8.13;2.78;;;;;;;;;;5055923;28;20331;-39
2023/10/29 06:02:29;;;;;;;4.10;2.22;;;;;;;;;;5053481;28;20103;-41
2023/10/29 06:04:55;;;;;;;6.40;2.53;;;;;;;;;;5056555;28;20036;-39
2023/10/29 06:07:20;;;;;;;6.47;2.53;;;;;;;;;;5056738;28;20120;-38
2023/10/29 06:09:48;;;;;;;7.28;2.38;;;;;;;;;;5065127;28;20092;-38
2023/10/29 06:12:13;;;;;;;6.50;2.40;;;;;;;;;;5065337;28;20055;-38
2023/10/29 06:14:38;;;;;;;4.43;2.75;;;;;;;;;;5064626;28;20060;-38
2023/10/29 06:17:04;;;;;;;5.22;2.45;;;;;;;;;;5064505;28;20450;-38
2023/10/29 06:19:29;;;;;;;5.72;2.13;;;;;;;;;;5059419;28;20024;-38
2023/10/29 06:21:54;;;;;;;7.53;2.35;;;;;;;;;;5065655;28;20651;-38
2023/10/29 06:24:20;;;;;;;6.47;2.10;;;;;;;;;;5055021;28;20028;-38
2023/10/29 06:26:45;;;;;;;8.43;2.35;;;;;;;;;;5068809;28;20021;-41
2023/10/29 06:29:10;;;;;;;6.53;2.17;;;;;;;;;;5068670;28;20028;-39
2023/10/29 06:31:36;;;;;;;6.50;2.27;;;;;;;;;;5057565;28;20852;-40
2023/10/29 06:34:01;;;;;;;12.45;2.70;;;;;;;;;;5069787;28;20290;-38
2023/10/29 06:36:27;;;;;;;4.47;2.25;;;;;;;;;;5057764;28;20025;-40
2023/10/29 06:38:52;;;;;;;3.63;2.08;;;;;;;;;;5069454;28;20099;-38
2023/10/29 06:41:17;;;;;;;7.95;3.60;;;;;;;;;;5067925;28;20024;-38
2023/10/29 06:43:43;;;;;;;9.15;2.80;;;;;;;;;;5065019;28;20021;-39
2023/10/29 06:46:08;;;;;;;10.00;3.47;;;;;;;;;;5072958;28;20490;-38
2023/10/29 06:48:35;;;;;;;4.70;2.42;;;;;;;;;;5068585;28;20271;-38
2023/10/29 06:51:00;;;;;;;7.63;2.50;;;;;;;;;;5069573;28;20025;-39
2023/10/29 06:53:26;;;;;;;7.32;3.30;;;;;;;;;;5068253;28;20036;-38
2023/10/29 06:55:51;;;;;;;6.77;2.47;;;;;;;;;;5063528;28;20017;-38
2023/10/29 06:58:16;;;;;;;7.37;3.43;;;;;;;;;;5065353;28;20272;-41
2023/10/29 07:00:41;;;;;;;9.82;2.90;;;;;;;;;;5060642;28;20804;-38
2023/10/29 07:03:07;;;;;;;8.17;2.70;;;;;;;;;;5065525;28;20044;-38
2023/10/29 07:05:32;;;;;;;9.60;2.57;;;;;;;;;;5065998;28;21052;-37
2023/10/29 07:07:58;;;;;;;6.50;3.30;;;;;;;;;;5065197;28;20348;-38
2023/10/29 07:10:24;;;;;;;9.35;2.38;;;;;;;;;;5066651;28;20270;-38
2023/10/29 07:12:49;;;;;;;6.75;2.30;;;;;;;;;;5068401;28;20030;-38
2023/10/29 07:15:14;;;;;;;0.00;0.00;;;;;;;;;;5065827;28;20051;-40
2023/10/29 07:17:40;;;;;;;0.32;0.32;;;;;;;;;;5056911;28;20033;-38
2023/10/29 07:20:05;;;;;;;0.00;0.00;;;;;;;;;;5063067;28;20429;-38
2023/10/29 07:22:30;;;;;;;6.32;2.22;;;;;;;;;;5066245;28;20483;-37
2023/10/29 07:24:56;;;;;;;6.97;2.03;;;;;;;;;;5071303;28;20020;-39
2023/10/29 07:27:21;;;;;;;8.63;3.60;;;;;;;;;;5067915;28;20930;-39
2023/10/29 07:29:46;;;;;;;5.50;2.20;;;;;;;;;;5079706;28;20044;-37
2023/10/29 07:32:12;;;;;;;4.73;1.90;;;;;;;;;;5066418;28;20260;-37
2023/10/29 07:34:37;;;;;;;4.75;2.15;;;;;;;;;;5057960;28;20374;-38
2023/10/29 07:37:03;;;;;;;2.70;1.27;;;;;;;;;;5053299;28;20024;-38
2023/10/29 07:39:28;;;;;;;5.47;2.47;;;;;;;;;;5066675;28;20028;-38
2023/10/29 07:41:54;;;;;;;5.50;3.05;;;;;;;;;;5069040;28;20017;-39
2023/10/29 07:44:19;;;;;;;5.13;1.73;;;;;;;;;;5064189;28;20033;-38
2023/10/29 07:46:44;;;;;;;4.03;2.03;;;;;;;;;;5068912;28;20032;-37
2023/10/29 07:49:09;;;;;;;4.27;1.97;;;;;;;;;;5065346;28;20271;-38
2023/10/29 07:51:35;;;;;;;7.83;2.90;;;;;;;;;;5069278;28;20870;-38
2023/10/29 07:54:00;;;;;;;5.73;2.20;;;;;;;;;;5060046;28;20279;-38
2023/10/29 07:56:25;;;;;;;12.20;3.13;;;;;;;;;;5065453;28;20598;-39
2023/10/29 07:58:51;;;;;;;5.03;2.65;;;;;;;;;;5070481;28;20259;-38
2023/10/29 08:01:17;;;;;;;5.70;2.33;;;;;;;;;;5063437;28;20034;-37
2023/10/29 08:03:43;;;;;;;7.53;2.08;;;;;;;;;;5065246;28;20036;-38
2023/10/29 08:06:09;;;;;;;8.38;2.85;;;;;;;;;;5063764;28;20020;-38
2023/10/29 08:08:34;;;;;;;6.05;2.28;;;;;;;;;;5053219;28;20016;-39
2023/10/29 08:11:00;;;;;;;8.00;2.10;;;;;;;;;;5059919;28;20028;-41
2023/10/29 08:13:25;;;;;;;4.60;2.30;;;;;;;;;;5053633;28;20033;-38
2023/10/29 08:15:50;;;;;;;8.32;2.58;;;;;;;;;;5064237;28;20282;-38
2023/10/29 08:18:15;;;;;;;5.37;1.63;;;;;;;;;;5068298;28;20111;-39
2023/10/29 08:20:41;;;;;;;4.73;2.00;;;;;;;;;;5064421;28;20290;-38
2023/10/29 08:23:06;;;;;;;5.47;2.45;;;;;;;;;;5062717;28;20760;-38
2023/10/29 08:25:34;;;;;;;3.30;1.33;;;;;;;;;;5064273;28;20031;-38
2023/10/29 08:27:59;;;;;;;7.85;2.67;;;;;;;;;;5067375;28;20032;-38
2023/10/29 08:30:25;;;;;;;6.70;2.40;;;;;;;;;;5056068;28;20040;-38
2023/10/29 08:32:50;;;;;;;7.40;2.57;;;;;;;;;;5064010;28;20831;-38
2023/10/29 08:35:15;;;;;;;5.47;2.63;;;;;;;;;;5051616;28;20287;-37
2023/10/29 08:37:41;;;;;;;7.53;2.20;;;;;;;;;;5050106;28;20367;-40
2023/10/29 08:40:06;;;;;;;7.85;3.63;;;;;;;;;;5048988;28;20021;-39
2023/10/29 08:42:32;;;;;;;5.35;2.47;;;;;;;;;;5058777;28;21764;-37
2023/10/29 08:44:58;;;;;;;4.65;2.53;;;;;;;;;;5057131;28;20498;-40
2023/10/29 08:47:23;;;;;;;9.07;2.40;;;;;;;;;;5056709;28;20422;-37
2023/10/29 08:49:49;;;;;;;4.90;2.03;;;;;;;;;;5058409;28;20029;-38
2023/10/29 08:52:14;;;;;;;6.03;2.10;;;;;;;;;;5060845;28;20058;-39
2023/10/29 08:54:40;;;;;;;6.28;2.42;;;;;;;;;;5054590;28;20036;-40
2023/10/29 08:57:05;;;;;;;4.18;1.88;;;;;;;;;;5056574;28;20048;-39
2023/10/29 08:59:31;;;;;;;9.95;2.58;;;;;;;;;;5059052;28;20048;-38
2023/10/29 09:01:56;;;;;;;8.85;3.83;;;;;;;;;;5057883;28;20029;-38
2023/10/29 09:04:22;;;;;;;8.75;2.22;;;;;;;;;;5054737;28;20653;-41
2023/10/29 09:06:47;;;;;;;7.60;2.15;;;;;;;;;;5060246;28;20027;-38
2023/10/29 09:09:13;;;;;;;10.68;3.10;;;;;;;;;;5054858;28;20122;-38
2023/10/29 09:11:38;;;;;;;6.70;2.65;;;;;;;;;;5063290;28;20166;-40
2023/10/29 09:14:04;;;;;;;8.90;2.25;;;;;;;;;;5060205;28;20047;-39
2023/10/29 09:16:29;;;;;;;6.35;2.45;;;;;;;;;;5059936;28;20494;-38
2023/10/29 09:18:55;;;;;;;13.93;2.50;;;;;;;;;;5061323;28;20033;-38
2023/10/29 09:21:20;;;;;;;3.03;1.27;;;;;;;;;;5052647;28;20380;-38
2023/10/29 09:23:46;;;;;;;6.83;2.20;;;;;;;;;;5060133;28;20283;-37
2023/10/29 09:26:11;;;;;;;6.57;1.88;;;;;;;;;;5051545;28;20897;-38
2023/10/29 09:28:37;;;;;;;7.50;3.10;;;;;;;;;;5058960;28;20392;-37
2023/10/29 09:31:04;;;;;;;10.43;3.15;;;;;;;;;;5052015;28;20287;-40
2023/10/29 09:33:29;;;;;;;18.88;7.57;;;;;;;;;;5057801;28;20024;-41
2023/10/29 09:35:54;;;;;;;6.15;3.00;;;;;;;;;;5061130;28;20047;-40
2023/10/29 09:38:21;;;;;;;7.53;1.60;;;;;;;;;;5059598;28;20048;-38
2023/10/29 09:40:52;;;;;;;4.90;1.50;;;;;;;;;;5059959;28;20024;-37
2023/10/29 09:43:19;;;;;;;7.25;1.85;;;;;;;;;;5056179;28;20035;-38
2023/10/29 09:45:45;;;;;;;5.72;1.77;;;;;;;;;;5049137;28;21336;-38
2023/10/29 09:48:15;;;;;;;6.68;2.08;;;;;;;;;;5044099;28;20028;-38
2023/10/29 09:50:42;;;;;;;5.80;1.75;;;;;;;;;;5042859;28;20025;-38
2023/10/29 09:53:08;;;;;;;6.43;1.42;;;;;;;;;;5057746;28;20453;-38
2023/10/29 09:55:33;;;;;;;5.03;1.60;;;;;;;;;;5057461;28;20024;-38
2023/10/29 09:57:59;;;;;;;5.32;1.88;;;;;;;;;;5064630;28;20028;-41
2023/10/29 10:00:25;;;;;;;5.07;1.83;;;;;;;;;;5056139;28;20062;-38
2023/10/29 10:02:51;;;;;;;10.13;3.70;;;;;;;;;;5059793;28;20480;-38
2023/10/29 10:05:23;;;;;;;4.80;2.15;;;;;;;;;;5061325;28;20043;-38
2023/10/29 10:07:52;;;;;;;3.75;1.92;;;;;;;;;;5061467;28;20032;-42
2023/10/29 10:10:19;;;;;;;5.35;1.73;;;;;;;;;;5053698;28;20132;-38
2023/10/29 10:12:45;;;;;;;6.20;1.70;;;;;;;;;;5064807;28;20112;-38
2023/10/29 10:15:11;;;;;;;7.00;3.03;;;;;;;;;;5063577;28;20077;-39
2023/10/29 10:17:36;;;;;;;6.07;2.13;;;;;;;;;;5061223;28;20033;-38
2023/10/29 10:20:11;;;;;;;5.33;1.93;;;;;;;;;;5059020;28;20032;-38
2023/10/29 10:22:36;;;;;;;11.07;2.00;;;;;;;;;;5058221;28;20262;-37
2023/10/29 10:25:01;;;;;;;8.38;1.67;;;;;;;;;;5059920;28;20031;-39
2023/10/29 10:27:27;;;;;;;4.00;1.70;;;;;;;;;;5053968;28;20013;-38
2023/10/29 10:29:52;;;;;;;5.30;1.95;;;;;;;;;;5061707;28;20031;-37
2023/10/29 10:32:22;;;;;;;4.88;1.73;;;;;;;;;;5056201;28;20028;-39
2023/10/29 10:34:50;;;;;;;5.80;2.03;;;;;;;;;;5060483;28;20425;-38
2023/10/29 10:37:16;;;;;;;5.60;2.42;;;;;;;;;;5053622;28;21032;-39
2023/10/29 10:39:42;;;;;;;12.23;4.60;;;;;;;;;;5058149;28;20037;-38
2023/10/29 10:42:07;;;;;;;8.00;1.80;;;;;;;;;;5059468;28;20033;-38
2023/10/29 10:44:34;;;;;;;5.10;3.13;;;;;;;;;;5056997;28;20274;-39
2023/10/29 10:47:00;;;;;;;5.25;1.98;;;;;;;;;;5056939;28;20305;-40
2023/10/29 10:49:26;;;;;;;4.10;1.73;;;;;;;;;;5058443;28;20028;-37
2023/10/29 10:51:55;;;;;;;4.47;1.48;;;;;;;;;;5056641;28;20105;-41
2023/10/29 10:54:21;;;;;;;4.05;1.40;;;;;;;;;;5042459;28;20032;-38
2023/10/29 10:56:48;;;;;;;6.40;2.00;;;;;;;;;;5047043;28;26129;-37
2023/10/29 10:59:13;;;;;;;7.70;1.58;;;;;;;;;;5061036;28;21456;-38
2023/10/29 11:01:39;;;;;;;7.13;1.33;;;;;;;;;;5053922;28;20021;-40
2023/10/29 11:04:07;;;;;;;3.17;1.60;;;;;;;;;;5053098;28;20313;-38
2023/10/29 11:06:34;;;;;;;7.68;3.30;;;;;;;;;;5049866;28;20044;-38
2023/10/29 11:09:02;;;;;;;5.82;2.63;;;;;;;;;;5059858;28;20060;-40
2023/10/29 11:11:33;;;;;;;5.72;1.65;;;;;;;;;;5059552;28;20032;-37
2023/10/29 11:14:11;;;;;;;6.85;1.67;;;;;;;;;;5061982;28;20059;-38
2023/10/29 11:16:55;;;;;;;6.03;2.58;;;;;;;;;;5062194;28;20033;-40
2023/10/29 11:19:44;;;;;;;2.00;1.23;;;;;;;;;;5062756;28;20058;-41
2023/10/29 11:22:12;;;;;;;7.78;1.90;;;;;;;;;;5061772;28;20433;-38
2023/10/29 11:24:37;;;;;;;3.50;1.65;;;;;;;;;;5061136;28;20094;-38
2023/10/29 11:27:21;;;;;;;15.93;1.63;;;;;;;;;;5067223;28;20474;-39
2023/10/29 11:29:47;;;;;;;6.10;2.08;;;;;;;;;;5062139;28;20275;-40
2023/10/29 11:32:30;;;;;;;5.13;1.80;;;;;;;;;;5057878;28;20078;-39
2023/10/29 11:35:21;;;;;;;3.25;1.98;;;;;;;;;;5048301;28;20032;-38
2023/10/29 11:37:51;;;;;;;5.70;2.57;;;;;;;;;;5059715;28;20029;-40
2023/10/29 11:40:22;;;;;;;4.75;1.73;;;;;;;;;;5065666;28;20029;-41
2023/10/29 11:42:48;;;;;;;3.92;1.70;;;;;;;;;;5069658;28;20491;-37
2023/10/29 11:45:40;;;;;;;5.45;1.40;;;;;;;;;;5063447;28;20050;-39
2023/10/29 11:48:17;;;;;;;4.90;1.83;;;;;;;;;;5062638;28;20043;-38
2023/10/29 11:51:02;;;;;;;5.60;1.67;;;;;;;;;;5064138;28;20058;-39
2023/10/29 11:53:28;;;;;;;5.93;2.47;;;;;;;;;;5054948;28;20036;-38
2023/10/29 11:55:57;;;;;;;4.47;1.80;;;;;;;;;;5059078;28;20043;-38
2023/10/29 11:58:23;;;;;;;4.75;1.40;;;;;;;;;;5063265;28;20301;-41
2023/10/29 12:00:48;;;;;;;3.28;1.60;;;;;;;;;;5061598;28;20048;-38
2023/10/29 12:03:20;;;;;;;6.30;1.85;;;;;;;;;;5062311;28;21236;-38
2023/10/29 12:05:49;;;;;;;7.60;2.45;;;;;;;;;;5056787;28;20020;-38
2023/10/29 12:08:14;;;;;;;7.40;1.95;;;;;;;;;;5065943;28;20059;-38
2023/10/29 12:10:46;;;;;;;7.23;2.33;;;;;;;;;;5063615;28;20056;-39
2023/10/29 12:13:12;;;;;;;12.52;2.70;;;;;;;;;;5064851;28;20801;-39
2023/10/29 12:15:38;;;;;;;5.80;1.77;;;;;;;;;;5061666;28;20063;-39
2023/10/29 12:18:04;;;;;;;5.13;1.77;;;;;;;;;;5064665;28;20108;-38
2023/10/29 12:20:29;;;;;;;4.57;1.80;;;;;;;;;;5059285;28;20100;-38
2023/10/29 12:22:58;;;;;;;8.23;1.70;;;;;;;;;;5053625;28;20159;-38
2023/10/29 12:25:27;;;;;;;2.88;1.33;;;;;;;;;;5059297;28;20304;-38
2023/10/29 12:27:53;;;;;;;6.75;1.90;;;;;;;;;;5061418;28;20595;-39
2023/10/29 12:30:35;;;;;;;5.90;1.73;;;;;;;;;;5063087;28;20032;-39
2023/10/29 12:33:20;;;;;;;4.47;2.03;;;;;;;;;;5050686;28;20017;-38
2023/10/29 12:35:47;;;;;;;3.75;1.50;;;;;;;;;;5057630;28;20029;-40
2023/10/29 12:38:13;;;;;;;6.10;1.42;;;;;;;;;;5062676;28;20108;-37
2023/10/29 12:40:57;;;;;;;2.92;1.30;;;;;;;;;;5063186;28;20397;-38
2023/10/29 12:43:52;;;;;;;6.68;1.88;;;;;;;;;;5064998;28;20016;-39
2023/10/29 12:46:18;;;;;;;3.65;1.50;;;;;;;;;;5050391;28;20082;-40
2023/10/29 12:48:59;;;;;;;11.25;3.20;;;;;;;;;;5060327;28;20027;-37
2023/10/29 12:51:25;;;;;;;6.07;1.73;;;;;;;;;;5062750;28;20023;-40
2023/10/29 12:53:51;;;;;;;7.65;1.75;;;;;;;;;;5062805;28;20024;-38
2023/10/29 12:56:16;;;;;;;6.38;1.70;;;;;;;;;;5061107;28;20024;-38
2023/10/29 12:58:41;;;;;;;4.13;1.60;;;;;;;;;;5062062;28;20027;-39
2023/10/29 13:01:07;;;;;;;8.82;3.38;;;;;;;;;;5059219;28;20058;-38
2023/10/29 13:03:32;;;;;;;4.97;2.40;;;;;;;;;;5065230;28;20024;-39
2023/10/29 13:05:58;;;;;;;6.80;2.33;;;;;;;;;;5057697;28;20305;-37
2023/10/29 13:08:26;;;;;;;4.43;1.30;;;;;;;;;;5056824;28;20033;-38
2023/10/29 13:10:52;;;;;;;7.57;1.85;;;;;;;;;;5051343;28;20479;-38
2023/10/29 13:13:17;;;;;;;5.63;2.33;;;;;;;;;;5062938;28;20037;-38
2023/10/29 13:15:43;;;;;;;4.22;1.42;;;;;;;;;;5064464;28;20024;-38
2023/10/29 13:18:09;;;;;;;4.23;1.90;;;;;;;;;;5062184;28;20058;-37
2023/10/29 13:20:34;;;;;;;4.72;2.20;;;;;;;;;;5058015;28;21097;-40
2023/10/29 13:23:00;;;;;;;6.22;2.65;;;;;;;;;;5062686;28;20031;-37
2023/10/29 13:25:26;;;;;;;3.45;1.20;;;;;;;;;;5061187;28;20027;-38
2023/10/29 13:27:51;;;;;;;2.70;1.03;;;;;;;;;;5057604;28;20021;-41
2023/10/29 13:30:16;;;;;;;2.00;0.93;;;;;;;;;;5057877;28;20301;-38
2023/10/29 13:32:41;;;;;;;0.17;0.07;;;;;;;;;;5062688;28;21238;-45
2023/10/29 13:35:08;;;;;;;3.72;1.50;;;;;;;;;;5056572;28;20295;-38
2023/10/29 13:37:34;;;;;;;4.18;1.70;;;;;;;;;;5062373;28;20021;-38
2023/10/29 13:39:59;;;;;;;3.08;1.35;;;;;;;;;;5059269;28;20090;-37
2023/10/29 13:42:25;;;;;;;4.88;1.60;;;;;;;;;;5062707;28;20036;-37
2023/10/29 13:44:51;;;;;;;7.03;1.27;;;;;;;;;;5060616;28;20649;-38
2023/10/29 13:47:16;;;;;;;8.05;1.38;;;;;;;;;;5055577;28;20082;-38
2023/10/29 13:49:42;;;;;;;4.78;1.05;;;;;;;;;;5060564;28;20043;-37
2023/10/29 13:52:07;;;;;;;1.50;0.53;;;;;;;;;;5067406;28;20486;-39
2023/10/29 13:54:32;;;;;;;2.67;1.37;;;;;;;;;;5065992;28;20286;-39
2023/10/29 13:56:57;;;;;;;3.63;1.50;;;;;;;;;;5064165;28;20262;-40
2023/10/29 13:59:23;;;;;;;4.20;1.52;;;;;;;;;;5067008;28;20792;-38
2023/10/29 14:01:48;;;;;;;3.35;1.23;;;;;;;;;;5064552;28;20021;-37
2023/10/29 14:04:13;;;;;;;5.82;1.60;;;;;;;;;;5064685;28;20036;-37
2023/10/29 14:06:39;;;;;;;5.97;1.55;;;;;;;;;;5066560;28;20084;-39
2023/10/29 14:09:04;;;;;;;3.75;1.50;;;;;;;;;;5062134;28;20077;-37
2023/10/29 14:11:29;;;;;;;4.13;1.83;;;;;;;;;;5068780;28;20020;-38
2023/10/29 14:13:57;;;;;;;5.88;1.95;;;;;;;;;;5057796;28;20646;-40
2023/10/29 14:16:36;;;;;;;3.90;1.73;;;;;;;;;;5058671;28;20103;-38
2023/10/29 14:19:01;;;;;;;4.30;2.03;;;;;;;;;;5061522;28;20475;-38
2023/10/29 14:21:27;;;;;;;6.43;1.80;;;;;;;;;;5044222;28;20032;-38
2023/10/29 14:23:52;;;;;;;2.87;1.40;;;;;;;;;;5056205;28;20016;-38
2023/10/29 14:26:18;;;;;;;2.67;1.43;;;;;;;;;;5058083;28;20403;-39
2023/10/29 14:28:43;;;;;;;5.53;1.63;;;;;;;;;;5062299;28;20263;-40
2023/10/29 14:31:08;;;;;;;4.10;2.00;;;;;;;;;;5060407;28;20416;-38
2023/10/29 14:33:34;;;;;;;4.20;1.70;;;;;;;;;;5055716;28;20021;-38